createdAt,value
2018-09-15T00:02:54.151Z,101914.84
2018-09-15T00:06:18.583Z,101911.77
2018-09-15T00:09:42.971Z,101907.55
2018-09-15T00:13:07.430Z,101905.70
2018-09-15T00:16:31.822Z,101905.34
2018-09-15T00:19:56.188Z,101902.11
2018-09-15T00:23:20.601Z,101903.88
2018-09-15T00:26:45.004Z,101902.19
2018-09-15T00:30:09.436Z,101906.97
2018-09-15T00:33:33.808Z,101900.43
2018-09-15T00:36:58.282Z,101896.25
2018-09-15T00:40:22.708Z,101904.13
2018-09-15T00:43:47.124Z,101903.80
2018-09-15T00:47:11.521Z,101906.19
2018-09-15T00:50:35.939Z,101907.68
2018-09-15T00:54:00.368Z,101908.50
2018-09-15T00:57:24.732Z,101909.75
2018-09-15T01:00:49.156Z,101910.20
2018-09-15T01:04:13.570Z,101912.80
2018-09-15T01:07:37.983Z,101911.70
2018-09-15T01:11:02.381Z,101907.63
2018-09-15T01:14:26.828Z,101909.11
2018-09-15T01:17:51.312Z,101908.39
2018-09-15T01:21:15.749Z,101907.79
2018-09-15T01:24:40.184Z,101907.41
2018-09-15T01:28:04.570Z,101898.39
2018-09-15T01:31:28.987Z,101901.22
2018-09-15T01:34:53.391Z,101898.84
2018-09-15T01:38:17.826Z,101900.75
2018-09-15T01:41:42.236Z,101897.33
2018-09-15T01:45:06.781Z,101895.72
2018-09-15T01:48:31.221Z,101890.23
2018-09-15T01:51:55.672Z,101896.70
2018-09-15T01:55:20.130Z,101897.34
2018-09-15T01:58:44.531Z,101896.88
2018-09-15T02:02:08.942Z,101891.53
2018-09-15T02:05:33.440Z,101884.69
2018-09-15T02:08:57.879Z,101886.66
2018-09-15T02:12:22.295Z,101897.11
2018-09-15T02:15:46.761Z,101900.88
2018-09-15T02:19:11.329Z,101901.64
2018-09-15T02:22:35.757Z,101899.41
2018-09-15T02:26:00.116Z,101904.53
2018-09-15T02:29:24.550Z,101902.36
2018-09-15T02:32:48.951Z,101910.63
2018-09-15T02:36:13.457Z,101907.75
2018-09-15T02:39:37.875Z,101909.41
2018-09-15T02:43:02.295Z,101908.54
2018-09-15T02:46:26.676Z,101915.19
2018-09-15T02:49:51.211Z,101912.45
2018-09-15T02:53:15.738Z,101912.36
2018-09-15T02:56:40.150Z,101907.56
2018-09-15T03:00:04.659Z,101910.89
2018-09-15T03:03:29.114Z,101915.57
2018-09-15T03:06:53.592Z,101916.03
2018-09-15T03:10:18.116Z,101920.14
2018-09-15T03:13:42.715Z,101922.66
2018-09-15T03:17:07.935Z,101928.45
2018-09-15T03:20:32.361Z,101932.67
2018-09-15T03:23:56.775Z,101927.64
2018-09-15T03:27:21.174Z,101928.31
2018-09-15T03:30:45.575Z,101918.10
2018-09-15T03:34:10.066Z,101922.02
2018-09-15T03:37:34.488Z,101920.40
2018-09-15T03:40:58.902Z,101926.70
2018-09-15T03:44:23.320Z,101926.09
2018-09-15T03:47:47.737Z,101927.45
2018-09-15T03:51:12.196Z,101928.06
2018-09-15T03:54:36.590Z,101919.58
2018-09-15T03:58:00.956Z,101918.63
2018-09-15T04:01:25.357Z,101934.43
2018-09-15T04:04:49.819Z,101937.39
2018-09-15T04:08:14.254Z,101950.57
2018-09-15T04:11:38.825Z,101953.70
2018-09-15T04:15:03.252Z,101950.95
2018-09-15T04:18:27.667Z,101946.00
2018-09-15T04:21:52.101Z,101944.24
2018-09-15T04:25:16.513Z,101956.86
2018-09-15T04:28:40.928Z,101962.09
2018-09-15T04:32:05.367Z,101961.19
2018-09-15T04:35:29.829Z,101966.78
2018-09-15T04:38:54.275Z,101965.05
2018-09-15T04:42:18.702Z,101968.86
2018-09-15T04:45:43.106Z,101965.68
2018-09-15T04:49:07.516Z,101967.31
2018-09-15T04:52:32.009Z,101961.50
2018-09-15T04:55:56.349Z,101958.02
2018-09-15T04:59:20.784Z,101957.73
2018-09-15T05:02:45.253Z,101966.75
2018-09-15T05:06:09.650Z,101969.36
2018-09-15T05:09:34.057Z,101971.22
2018-09-15T05:12:58.593Z,101975.67
2018-09-15T05:16:22.903Z,101976.27
2018-09-15T05:19:47.373Z,101983.64
2018-09-15T05:23:12.033Z,101978.20
2018-09-15T05:26:37.037Z,101981.23
2018-09-15T05:30:01.579Z,101983.92
2018-09-15T05:33:26.002Z,101981.91
2018-09-15T05:36:50.446Z,101984.91
2018-09-15T05:40:15.172Z,101994.10
2018-09-15T05:43:39.678Z,101998.28
2018-09-15T05:47:05.796Z,101998.08
2018-09-15T05:50:34.323Z,102007.27
2018-09-15T05:54:33.007Z,102012.72
2018-09-15T05:57:57.543Z,102016.58
2018-09-15T06:01:22.078Z,102019.98
2018-09-15T06:04:46.499Z,102025.59
2018-09-15T06:08:10.921Z,102021.04
2018-09-15T06:11:35.448Z,102025.49
2018-09-15T06:14:59.871Z,102038.78
2018-09-15T06:18:24.307Z,102040.53
2018-09-15T06:21:48.845Z,102041.88
2018-09-15T06:25:13.288Z,102049.01
2018-09-15T06:28:37.786Z,102063.17
2018-09-15T06:32:03.333Z,102066.49
2018-09-15T06:35:27.963Z,102054.97
2018-09-15T06:38:52.443Z,102048.06
2018-09-15T06:42:16.864Z,102045.69
2018-09-15T06:45:41.371Z,102048.36
2018-09-15T06:49:05.988Z,102072.12
2018-09-15T06:52:30.672Z,102075.64
2018-09-15T06:55:55.197Z,102079.45
2018-09-15T06:59:19.695Z,102079.19
2018-09-15T07:02:44.233Z,102077.39
2018-09-15T07:06:08.713Z,102089.55
2018-09-15T07:09:33.174Z,102087.66
2018-09-15T07:12:57.637Z,102090.38
2018-09-15T07:16:22.061Z,102091.16
2018-09-15T07:19:46.569Z,102098.06
2018-09-15T07:23:11.174Z,102103.30
2018-09-15T07:26:35.720Z,102108.64
2018-09-15T07:30:00.162Z,102111.40
2018-09-15T07:33:24.579Z,102121.88
2018-09-15T07:36:49.032Z,102124.39
2018-09-15T07:40:13.446Z,102116.98
2018-09-15T07:43:37.834Z,102123.79
2018-09-15T07:47:02.236Z,102125.30
2018-09-15T07:50:26.772Z,102125.95
2018-09-15T07:53:51.232Z,102126.73
2018-09-15T07:57:15.745Z,102126.99
2018-09-15T08:00:40.159Z,102133.50
2018-09-15T08:04:04.587Z,102132.92
2018-09-15T08:07:29.012Z,102134.29
2018-09-15T08:10:53.523Z,102133.78
2018-09-15T08:14:17.947Z,102141.98
2018-09-15T08:17:42.445Z,102141.01
2018-09-15T08:21:06.860Z,102147.13
2018-09-15T08:24:31.807Z,102146.73
2018-09-15T08:27:56.250Z,102148.85
2018-09-15T08:31:20.681Z,102155.96
2018-09-15T08:34:45.138Z,102157.16
2018-09-15T08:38:09.543Z,102155.38
2018-09-15T08:41:33.956Z,102166.51
2018-09-15T08:44:58.629Z,102161.05
2018-09-15T08:48:23.178Z,102168.61
2018-09-15T08:51:47.524Z,102166.80
2018-09-15T08:55:12.068Z,102170.90
2018-09-15T08:58:36.608Z,102179.88
2018-09-15T09:02:01.566Z,102175.94
2018-09-15T09:05:26.014Z,102167.99
2018-09-15T09:08:50.633Z,102176.55
2018-09-15T09:12:15.011Z,102174.32
2018-09-15T09:15:39.434Z,102173.95
2018-09-15T09:19:03.879Z,102185.28
2018-09-15T09:22:28.302Z,102191.03
2018-09-15T09:25:52.765Z,102192.67
2018-09-15T09:29:17.197Z,102201.23
2018-09-15T09:32:41.616Z,102192.64
2018-09-15T09:36:06.045Z,102191.19
2018-09-15T09:39:30.464Z,102189.48
2018-09-15T09:42:54.931Z,102181.92
2018-09-15T09:46:19.321Z,102189.42
2018-09-15T09:49:43.719Z,102191.81
2018-09-15T09:53:08.217Z,102177.88
2018-09-15T09:56:32.725Z,102190.53
2018-09-15T09:59:57.165Z,102180.28
2018-09-15T10:03:21.737Z,102189.66
2018-09-15T10:06:46.151Z,102188.94
2018-09-15T10:10:10.654Z,102190.70
2018-09-15T10:13:35.061Z,102184.99
2018-09-15T10:16:59.492Z,102193.23
2018-09-15T10:20:23.927Z,102175.95
2018-09-15T10:23:48.365Z,102178.73
2018-09-15T10:27:12.769Z,102172.13
2018-09-15T10:30:37.338Z,102173.39
2018-09-15T10:34:01.792Z,102172.96
2018-09-15T10:37:26.444Z,102176.91
2018-09-15T10:40:50.895Z,102177.88
2018-09-15T10:44:15.336Z,102179.91
2018-09-15T10:47:39.756Z,102190.11
2018-09-15T10:51:04.185Z,102173.39
2018-09-15T10:54:28.621Z,102177.30
2018-09-15T10:57:53.483Z,102188.42
2018-09-15T11:01:18.126Z,102183.06
2018-09-15T11:04:46.080Z,102179.06
2018-09-15T11:08:10.697Z,102180.45
2018-09-15T11:11:35.329Z,102182.67
2018-09-15T11:15:00.246Z,102178.81
2018-09-15T11:18:25.992Z,102173.91
2018-09-15T11:21:50.593Z,102160.98
2018-09-15T11:25:15.050Z,102162.70
2018-09-15T11:28:39.588Z,102170.91
2018-09-15T11:32:04.183Z,102172.78
2018-09-15T11:35:28.669Z,102176.89
2018-09-15T11:38:53.209Z,102170.34
2018-09-15T11:42:17.881Z,102161.77
2018-09-15T11:45:42.272Z,102164.99
2018-09-15T11:49:06.742Z,102161.86
2018-09-15T11:52:31.166Z,102166.61
2018-09-15T11:55:55.560Z,102167.20
2018-09-15T11:59:19.993Z,102167.22
2018-09-15T12:02:44.426Z,102171.16
2018-09-15T12:06:08.832Z,102182.77
2018-09-15T12:09:33.282Z,102187.58
2018-09-15T12:12:57.726Z,102180.09
2018-09-15T12:16:22.151Z,102187.17
2018-09-15T12:19:46.790Z,102186.65
2018-09-15T12:23:11.221Z,102187.94
2018-09-15T12:26:35.774Z,102186.31
2018-09-15T12:30:00.191Z,102187.09
2018-09-15T12:33:24.757Z,102191.94
2018-09-15T12:36:49.203Z,102188.92
2018-09-15T12:40:13.686Z,102194.02
2018-09-15T12:43:38.117Z,102194.14
2018-09-15T12:47:02.541Z,102199.22
2018-09-15T12:50:26.967Z,102196.58
2018-09-15T12:53:51.394Z,102194.06
2018-09-15T12:57:15.828Z,102187.38
2018-09-15T13:00:40.258Z,102187.41
2018-09-15T13:04:04.670Z,102187.41
2018-09-15T13:07:29.093Z,102176.03
2018-09-15T13:10:53.525Z,102167.18
2018-09-15T13:14:17.921Z,102177.14
2018-09-15T13:17:42.396Z,102177.58
2018-09-15T13:21:06.850Z,102173.21
2018-09-15T13:24:31.275Z,102175.41
2018-09-15T13:27:55.703Z,102166.02
2018-09-15T13:31:20.195Z,102166.90
2018-09-15T13:34:44.724Z,102167.45
2018-09-15T13:38:09.321Z,102175.92
2018-09-15T13:41:33.836Z,102184.87
2018-09-15T13:44:58.288Z,102182.80
2018-09-15T13:48:22.740Z,102177.09
2018-09-15T13:51:47.161Z,102174.15
2018-09-15T13:55:11.670Z,102178.03
2018-09-15T13:58:36.128Z,102171.80
2018-09-15T14:02:00.552Z,102180.59
2018-09-15T14:05:25.015Z,102185.67
2018-09-15T14:08:49.468Z,102194.98
2018-09-15T14:12:13.950Z,102184.02
2018-09-15T14:15:38.364Z,102191.14
2018-09-15T14:19:02.848Z,102186.31
2018-09-15T14:22:28.236Z,102177.33
2018-09-15T14:25:52.731Z,102167.52
2018-09-15T14:29:17.256Z,102176.63
2018-09-15T14:32:41.727Z,102173.86
2018-09-15T14:36:06.297Z,102180.77
2018-09-15T14:39:30.783Z,102177.75
2018-09-15T14:42:55.345Z,102180.98
2018-09-15T14:46:19.788Z,102187.30
2018-09-15T14:49:44.277Z,102188.61
2018-09-15T14:53:08.799Z,102186.30
2018-09-15T14:56:33.214Z,102190.28
2018-09-15T14:59:57.703Z,102180.70
2018-09-15T15:03:22.295Z,102178.61
2018-09-15T15:06:46.838Z,102177.44
2018-09-15T15:10:11.328Z,102178.92
2018-09-15T15:13:35.768Z,102174.82
2018-09-15T15:17:00.242Z,102173.56
2018-09-15T15:20:24.693Z,102167.38
2018-09-15T15:23:49.124Z,102160.73
2018-09-15T15:27:13.562Z,102158.76
2018-09-15T15:30:38.339Z,102160.88
2018-09-15T15:34:02.801Z,102177.52
2018-09-15T15:37:27.258Z,102174.07
2018-09-15T15:40:51.825Z,102175.77
2018-09-15T15:44:22.868Z,102179.91
2018-09-15T15:47:47.372Z,102177.28
2018-09-15T15:51:11.847Z,102172.97
2018-09-15T15:54:36.244Z,102187.30
2018-09-15T15:58:00.660Z,102183.07
2018-09-15T16:01:25.155Z,102178.74
2018-09-15T16:04:49.939Z,102185.19
2018-09-15T16:08:14.365Z,102180.02
2018-09-15T16:11:39.144Z,102172.90
2018-09-15T16:15:03.613Z,102181.14
2018-09-15T16:18:28.045Z,102182.84
2018-09-15T16:21:52.474Z,102186.03
2018-09-15T16:25:16.873Z,102182.54
2018-09-15T16:28:41.298Z,102176.77
2018-09-15T16:32:05.724Z,102186.66
2018-09-15T16:35:30.163Z,102183.89
2018-09-15T16:38:54.691Z,102180.34
2018-09-15T16:42:19.123Z,102175.33
2018-09-15T16:45:43.552Z,102174.23
2018-09-15T16:49:08.502Z,102179.69
2018-09-15T16:52:32.899Z,102179.74
2018-09-15T16:55:57.283Z,102177.70
2018-09-15T16:59:21.778Z,102178.08
2018-09-15T17:02:46.238Z,102176.13
2018-09-15T17:06:10.715Z,102172.97
2018-09-15T17:09:35.232Z,102180.14
2018-09-15T17:12:59.763Z,102181.42
2018-09-15T17:16:24.255Z,102179.97
2018-09-15T17:19:48.798Z,102174.50
2018-09-15T17:23:13.332Z,102181.98
2018-09-15T17:26:37.821Z,102185.45
2018-09-15T17:30:02.315Z,102194.86
2018-09-15T17:33:26.866Z,102195.64
2018-09-15T17:36:51.477Z,102192.03
2018-09-15T17:40:17.296Z,102191.95
2018-09-15T17:43:41.843Z,102191.09
2018-09-15T17:47:07.152Z,102192.23
2018-09-15T17:50:32.354Z,102194.52
2018-09-15T17:53:57.568Z,102199.77
2018-09-15T17:57:23.100Z,102206.66
2018-09-15T18:00:48.330Z,102206.66
2018-09-15T18:04:12.976Z,102208.67
2018-09-15T18:07:37.732Z,102210.63
2018-09-15T18:11:02.757Z,102217.51
2018-09-15T18:14:27.511Z,102220.16
2018-09-15T18:17:52.211Z,102219.08
2018-09-15T18:21:17.466Z,102222.63
2018-09-15T18:24:43.504Z,102229.35
2018-09-15T18:28:08.024Z,102224.23
2018-09-15T18:31:32.873Z,102219.92
2018-09-15T18:34:57.851Z,102220.37
2018-09-15T18:38:22.813Z,102225.47
2018-09-15T18:41:47.554Z,102227.39
2018-09-15T18:45:12.663Z,102236.23
2018-09-15T18:48:37.176Z,102234.39
2018-09-15T18:52:02.242Z,102236.78
2018-09-15T18:55:27.813Z,102238.45
2018-09-15T18:58:53.260Z,102235.91
2018-09-15T19:02:18.205Z,102244.81
2018-09-15T19:05:44.095Z,102252.06
2018-09-15T19:09:13.134Z,102252.46
2018-09-15T19:12:37.763Z,102254.94
2018-09-15T19:16:03.459Z,102254.14
2018-09-15T19:19:27.944Z,102255.28
2018-09-15T19:22:52.362Z,102254.03
2018-09-15T19:26:16.772Z,102258.16
2018-09-15T19:29:41.252Z,102267.96
2018-09-15T19:33:05.735Z,102271.25
2018-09-15T19:36:30.181Z,102270.91
2018-09-15T19:39:54.628Z,102273.14
2018-09-15T19:43:19.265Z,102275.27
2018-09-15T19:46:43.714Z,102278.62
2018-09-15T19:50:08.168Z,102287.36
2018-09-15T19:53:32.597Z,102289.54
2018-09-15T19:56:57.120Z,102290.91
2018-09-15T20:00:21.657Z,102295.83
2018-09-15T20:03:46.087Z,102289.77
2018-09-15T20:07:10.541Z,102289.14
2018-09-15T20:10:35.070Z,102288.91
2018-09-15T20:13:59.571Z,102291.53
2018-09-15T20:17:22.436Z,102293.52
2018-09-15T20:20:45.265Z,102296.34
2018-09-15T20:24:09.728Z,102291.12
2018-09-15T20:27:34.155Z,102290.39
2018-09-15T20:30:58.651Z,102287.74
2018-09-15T20:34:23.121Z,102292.77
2018-09-15T20:37:47.573Z,102294.67
2018-09-15T20:41:12.035Z,102290.02
2018-09-15T20:44:36.538Z,102295.68
2018-09-15T20:48:01.086Z,102287.75
2018-09-15T20:51:25.542Z,102284.17
2018-09-15T20:54:50.557Z,102285.98
2018-09-15T20:58:15.320Z,102281.07
2018-09-15T21:01:39.822Z,102279.43
2018-09-15T21:05:04.315Z,102280.97
2018-09-15T21:08:28.754Z,102276.92
2018-09-15T21:11:53.224Z,102281.84
2018-09-15T21:15:17.663Z,102275.84
2018-09-15T21:18:42.197Z,102277.19
2018-09-15T21:22:06.687Z,102277.67
2018-09-15T21:25:31.111Z,102279.52
2018-09-15T21:28:57.948Z,102277.79
2018-09-15T21:32:22.465Z,102280.58
2018-09-15T21:35:47.065Z,102288.05
2018-09-15T21:39:13.272Z,102290.48
2018-09-15T21:42:37.801Z,102290.45
2018-09-15T21:46:02.503Z,102294.42
2018-09-15T21:49:27.001Z,102293.56
2018-09-15T21:52:51.574Z,102289.27
2018-09-15T21:56:16.041Z,102297.87
2018-09-15T21:59:40.453Z,102290.80
2018-09-15T22:03:04.918Z,102297.39
2018-09-15T22:06:29.353Z,102289.19
2018-09-15T22:09:53.784Z,102290.29
2018-09-15T22:13:18.554Z,102292.23
2018-09-15T22:16:43.517Z,102288.80
2018-09-15T22:20:07.988Z,102294.87
2018-09-15T22:23:32.572Z,102289.44
2018-09-15T22:26:57.220Z,102289.74
2018-09-15T22:30:21.669Z,102288.97
2018-09-15T22:33:46.170Z,102285.50
2018-09-15T22:37:10.597Z,102287.67
2018-09-15T22:40:35.032Z,102286.66
2018-09-15T22:43:59.557Z,102288.02
2018-09-15T22:47:24.070Z,102277.30
2018-09-15T22:50:48.528Z,102284.63
2018-09-15T22:54:13.078Z,102281.78
2018-09-15T22:57:37.517Z,102275.91
2018-09-15T23:01:02.056Z,102279.27
2018-09-15T23:04:26.468Z,102282.95
2018-09-15T23:07:50.880Z,102277.91
2018-09-15T23:11:15.352Z,102278.39
2018-09-15T23:14:40.286Z,102280.58
2018-09-15T23:18:05.086Z,102283.96
2018-09-15T23:21:30.109Z,102287.84
2018-09-15T23:24:54.901Z,102284.73
2018-09-15T23:28:19.338Z,102280.09
2018-09-15T23:31:44.118Z,102283.06
2018-09-15T23:35:08.744Z,102284.60
2018-09-15T23:38:33.829Z,102281.94
2018-09-15T23:41:58.284Z,102283.83
2018-09-15T23:45:22.823Z,102279.56
2018-09-15T23:48:47.353Z,102276.84
2018-09-15T23:52:11.957Z,102271.80
2018-09-15T23:55:36.464Z,102272.35
2018-09-15T23:59:01.041Z,102265.90
